Salta, Argentina
Current Conditions -  °F | °C
As of 8:00 AM on Friday 26 Dec 2014 (Local Time) from SASA Reporting Station
Clear Clear  
Wind Chill: 64°   Ceiling: Unl
Heat Index: 64°   Visibility: 6mi
Dew Point: 59°   Wind: 0mph
Humidity: 83%   Direction: NA
Pressure: 30.06"   Gusts: NA
Location:  24.79°S, 65.41°W
Report Text: SASA 261100Z 00000KT CAVOK 18/15 Q1018
Loading
Personal Weather Stations






























Interactive Weather Map New forecast layout! Learn more

10-Day Weather Forecast

Advertisements
Track Severe Weather on mobile